Time;durP1;ratioP1;P1;durP2;ratioP2;P2;SDS_P1;SDS_P2;PMS_P1;PMS_P2;Temp;Humidity;BMP_temperature;BMP_pressure;BME280_temperature;BME280_humidity;BME280_pressure;Samples;Min_cycle;Max_cycle;Signal;HPM_P1;HPM_P2
2022/01/24 00:01:19;;;;;;;0.10;0.10;;;;;;;;;;4793688;29;20132;-87
2022/01/24 00:03:45;;;;;;;0.10;0.10;;;;;;;;;;4793419;29;20054;-87
2022/01/24 00:06:14;;;;;;;0.10;0.10;;;;;;;;;;4793090;29;20046;-87
2022/01/24 00:08:41;;;;;;;0.10;0.10;;;;;;;;;;4793376;29;20046;-87
2022/01/24 00:11:11;;;;;;;0.10;0.10;;;;;;;;;;4792875;29;20050;-87
2022/01/24 00:14:20;;;;;;;0.10;0.10;;;;;;;;;;4808352;29;20156;-87
2022/01/24 00:26:50;;;;;;;0.10;0.10;;;;;;;;;;4795356;29;20046;-86
2022/01/24 00:29:18;;;;;;;0.10;0.10;;;;;;;;;;4807960;29;20094;-86
2022/01/24 00:31:43;;;;;;;0.10;0.10;;;;;;;;;;4807371;29;20042;-86
2022/01/24 00:34:09;;;;;;;0.10;0.10;;;;;;;;;;4792800;29;20423;-86
2022/01/24 00:36:35;;;;;;;0.10;0.10;;;;;;;;;;4792812;29;20073;-86
2022/01/24 00:39:02;;;;;;;0.10;0.10;;;;;;;;;;4792618;29;20126;-87
2022/01/24 00:41:28;;;;;;;0.10;0.10;;;;;;;;;;4807533;29;20141;-86
2022/01/24 00:46:33;;;;;;;0.10;0.10;;;;;;;;;;4807480;29;20217;-88
2022/01/24 00:57:00;;;;;;;0.10;0.10;;;;;;;;;;4794646;29;20042;-87
2022/01/24 00:59:26;;;;;;;0.10;0.10;;;;;;;;;;4792362;29;20047;-86
2022/01/24 01:01:52;;;;;;;0.10;0.10;;;;;;;;;;4792382;29;20501;-87
2022/01/24 01:04:21;;;;;;;0.10;0.10;;;;;;;;;;4792253;29;20050;-86
2022/01/24 01:06:49;;;;;;;0.20;0.20;;;;;;;;;;4807626;29;20487;-86
2022/01/24 01:20:18;;;;;;;0.10;0.10;;;;;;;;;;4794484;29;20053;-87
2022/01/24 01:22:44;;;;;;;0.10;0.10;;;;;;;;;;4792590;29;20050;-87
2022/01/24 01:25:10;;;;;;;0.10;0.10;;;;;;;;;;4791946;29;20049;-87
2022/01/24 01:27:41;;;;;;;0.08;0.08;;;;;;;;;;4791906;29;20065;-86
2022/01/24 01:30:17;;;;;;;0.10;0.10;;;;;;;;;;4791738;29;20141;-87
2022/01/24 01:38:34;;;;;;;0.10;0.10;;;;;;;;;;4792330;29;20177;-88
2022/01/24 01:57:18;;;;;;;0.10;0.10;;;;;;;;;;4791497;29;20050;-87
2022/01/24 01:59:44;;;;;;;0.13;0.13;;;;;;;;;;4791396;29;20114;-87
2022/01/24 02:02:10;;;;;;;0.10;0.10;;;;;;;;;;4791641;29;20095;-87
2022/01/24 02:04:36;;;;;;;0.10;0.10;;;;;;;;;;4806451;29;20078;-87
2022/01/24 02:07:02;;;;;;;0.10;0.10;;;;;;;;;;4791434;29;20498;-87
2022/01/24 02:09:33;;;;;;;0.00;0.00;;;;;;;;;;4791563;29;20074;-87
2022/01/24 02:11:59;;;;;;;0.10;0.10;;;;;;;;;;4791372;29;20529;-88
2022/01/24 02:14:32;;;;;;;0.10;0.10;;;;;;;;;;4791466;29;20042;-87
2022/01/24 02:17:06;;;;;;;0.08;0.08;;;;;;;;;;4792438;29;20104;-87
2022/01/24 02:20:04;;;;;;;0.10;0.10;;;;;;;;;;4792462;29;20043;-87
2022/01/24 02:22:49;;;;;;;0.10;0.10;;;;;;;;;;4791309;29;20057;-86
2022/01/24 02:25:25;;;;;;;0.03;0.03;;;;;;;;;;4791159;29;20491;-87
2022/01/24 02:27:56;;;;;;;0.10;0.10;;;;;;;;;;4807601;29;20411;-86
2022/01/24 02:33:04;;;;;;;0.10;0.10;;;;;;;;;;4809710;29;20291;-86
2022/01/24 02:35:30;;;;;;;0.10;0.10;;;;;;;;;;4795133;29;20050;-87
2022/01/24 02:37:59;;;;;;;0.10;0.10;;;;;;;;;;4794525;29;20511;-87
2022/01/24 02:40:26;;;;;;;0.03;0.03;;;;;;;;;;4810257;29;20078;-87
2022/01/24 02:48:28;;;;;;;0.10;0.10;;;;;;;;;;4809570;29;20047;-87
2022/01/24 02:53:39;;;;;;;0.10;0.10;;;;;;;;;;4796109;29;20050;-86
2022/01/24 02:56:06;;;;;;;0.10;0.10;;;;;;;;;;4809331;29;20233;-87
2022/01/24 02:58:32;;;;;;;0.10;0.10;;;;;;;;;;4794821;29;20415;-87
2022/01/24 03:00:58;;;;;;;0.10;0.10;;;;;;;;;;4794471;29;20083;-87
2022/01/24 03:03:24;;;;;;;0.10;0.10;;;;;;;;;;4809388;29;20487;-87
2022/01/24 03:05:50;;;;;;;0.10;0.10;;;;;;;;;;4793996;29;20110;-87
2022/01/24 03:08:16;;;;;;;0.10;0.10;;;;;;;;;;4794168;29;20050;-88
2022/01/24 03:10:45;;;;;;;0.10;0.10;;;;;;;;;;4794088;29;20050;-87
2022/01/24 03:15:40;;;;;;;0.10;0.10;;;;;;;;;;4794471;29;20057;-87
2022/01/24 03:18:06;;;;;;;0.10;0.10;;;;;;;;;;4793913;29;20046;-86
2022/01/24 03:20:32;;;;;;;0.10;0.10;;;;;;;;;;4793909;29;20042;-87
2022/01/24 03:22:58;;;;;;;0.10;0.10;;;;;;;;;;4793859;29;20464;-87
2022/01/24 03:25:24;;;;;;;0.10;0.10;;;;;;;;;;4793989;29;20053;-87
2022/01/24 03:27:50;;;;;;;0.10;0.10;;;;;;;;;;4794069;29;20609;-87
2022/01/24 03:30:16;;;;;;;0.10;0.10;;;;;;;;;;4793911;29;20486;-87
2022/01/24 03:32:42;;;;;;;0.10;0.10;;;;;;;;;;4793671;29;20495;-86
2022/01/24 03:35:08;;;;;;;0.10;0.10;;;;;;;;;;4808638;29;20521;-86
2022/01/24 03:37:34;;;;;;;0.20;0.20;;;;;;;;;;4793897;29;20495;-86
2022/01/24 03:40:01;;;;;;;0.10;0.10;;;;;;;;;;4794197;29;20054;-87
2022/01/24 03:42:27;;;;;;;0.10;0.10;;;;;;;;;;4792856;29;20046;-86
2022/01/24 03:44:57;;;;;;;0.10;0.10;;;;;;;;;;4808636;29;20049;-87
2022/01/24 03:50:00;;;;;;;0.10;0.10;;;;;;;;;;4794829;29;20479;-86
2022/01/24 03:52:26;;;;;;;0.10;0.10;;;;;;;;;;4793710;29;20806;-87
2022/01/24 03:54:52;;;;;;;0.10;0.10;;;;;;;;;;4793522;29;20102;-87
2022/01/24 03:57:19;;;;;;;0.20;0.20;;;;;;;;;;4793466;29;20038;-87
2022/01/24 03:59:45;;;;;;;0.10;0.10;;;;;;;;;;4793389;29;20049;-87
2022/01/24 04:02:11;;;;;;;0.10;0.10;;;;;;;;;;4793174;29;20476;-88
2022/01/24 04:04:37;;;;;;;0.10;0.10;;;;;;;;;;4793255;29;20046;-87
2022/01/24 04:07:03;;;;;;;0.10;0.10;;;;;;;;;;4793295;29;20111;-87
2022/01/24 04:09:29;;;;;;;0.10;0.10;;;;;;;;;;4793323;29;20054;-87
2022/01/24 04:11:58;;;;;;;0.10;0.10;;;;;;;;;;4807899;29;20050;-87
2022/01/24 04:17:06;;;;;;;0.10;0.10;;;;;;;;;;4793017;29;20054;-87
2022/01/24 04:22:10;;;;;;;0.10;0.10;;;;;;;;;;4824346;29;20076;-87
2022/01/24 04:24:37;;;;;;;0.10;0.10;;;;;;;;;;4793297;29;20370;-87
2022/01/24 04:27:03;;;;;;;0.10;0.10;;;;;;;;;;4792872;29;20061;-87
2022/01/24 04:29:29;;;;;;;0.10;0.10;;;;;;;;;;4793002;29;20050;-86
2022/01/24 04:31:55;;;;;;;0.00;0.00;;;;;;;;;;4792735;29;20046;-87
2022/01/24 04:34:21;;;;;;;0.10;0.10;;;;;;;;;;4792838;29;20057;-87
2022/01/24 04:36:47;;;;;;;0.10;0.10;;;;;;;;;;4807598;29;20069;-87
2022/01/24 04:39:13;;;;;;;0.10;0.10;;;;;;;;;;4792548;29;20097;-87
2022/01/24 04:41:43;;;;;;;0.10;0.10;;;;;;;;;;4792355;29;20054;-87
2022/01/24 04:52:11;;;;;;;0.10;0.10;;;;;;;;;;4807261;29;20054;-86
2022/01/24 04:54:46;;;;;;;0.10;0.10;;;;;;;;;;4792512;29;20560;-86
2022/01/24 04:57:15;;;;;;;0.10;0.10;;;;;;;;;;4807369;29;20047;-86
2022/01/24 04:59:41;;;;;;;0.10;0.10;;;;;;;;;;4807226;29;20408;-87
2022/01/24 05:02:07;;;;;;;0.10;0.10;;;;;;;;;;4807306;29;20464;-86
2022/01/24 05:04:33;;;;;;;0.10;0.10;;;;;;;;;;4792258;29;20572;-86
2022/01/24 05:06:59;;;;;;;0.20;0.20;;;;;;;;;;4792209;29;20068;-87
2022/01/24 05:09:27;;;;;;;0.10;0.10;;;;;;;;;;4792192;29;20547;-87
2022/01/24 05:12:03;;;;;;;0.10;0.10;;;;;;;;;;4792238;29;20042;-86
2022/01/24 05:25:26;;;;;;;0.10;0.10;;;;;;;;;;4806831;29;20046;-89
2022/01/24 05:27:52;;;;;;;0.10;0.10;;;;;;;;;;4792486;29;20046;-87
2022/01/24 05:30:18;;;;;;;0.10;0.10;;;;;;;;;;4807063;29;20052;-86
2022/01/24 05:32:44;;;;;;;0.10;0.10;;;;;;;;;;4806619;29;20050;-87
2022/01/24 05:35:10;;;;;;;0.10;0.10;;;;;;;;;;4791992;29;20476;-87
2022/01/24 05:37:36;;;;;;;0.13;0.13;;;;;;;;;;4791539;29;20042;-87
2022/01/24 05:40:02;;;;;;;0.10;0.10;;;;;;;;;;4791661;29;20141;-87
2022/01/24 05:42:28;;;;;;;0.10;0.10;;;;;;;;;;4791902;29;20089;-88
2022/01/24 05:44:54;;;;;;;0.10;0.10;;;;;;;;;;4791559;29;20521;-87
2022/01/24 05:47:20;;;;;;;0.10;0.10;;;;;;;;;;4806898;29;20455;-87
2022/01/24 05:49:46;;;;;;;0.10;0.10;;;;;;;;;;4791633;29;20141;-88
2022/01/24 05:52:12;;;;;;;0.10;0.10;;;;;;;;;;4791578;29;20042;-87
2022/01/24 05:54:38;;;;;;;0.10;0.10;;;;;;;;;;4806603;29;20084;-87
2022/01/24 05:57:05;;;;;;;0.10;0.10;;;;;;;;;;4791608;29;20129;-87
2022/01/24 05:59:31;;;;;;;0.10;0.10;;;;;;;;;;4791613;29;20103;-87
2022/01/24 06:01:57;;;;;;;0.10;0.10;;;;;;;;;;4791714;29;20054;-87
2022/01/24 06:04:22;;;;;;;0.10;0.10;;;;;;;;;;4792320;29;20057;-88
2022/01/24 06:06:48;;;;;;;0.10;0.10;;;;;;;;;;4795185;29;20097;-87
2022/01/24 06:09:14;;;;;;;0.10;0.10;;;;;;;;;;4809944;29;20057;-86
2022/01/24 06:11:41;;;;;;;0.10;0.10;;;;;;;;;;4795128;29;20066;-87
2022/01/24 06:14:07;;;;;;;0.10;0.10;;;;;;;;;;4795138;29;20046;-88
2022/01/24 06:16:33;;;;;;;0.10;0.10;;;;;;;;;;4794905;29;20065;-87
2022/01/24 06:18:59;;;;;;;0.10;0.10;;;;;;;;;;4795354;29;20050;-87
2022/01/24 06:21:25;;;;;;;0.10;0.10;;;;;;;;;;4795253;29;20141;-86
2022/01/24 06:23:50;;;;;;;0.10;0.10;;;;;;;;;;4794817;29;20058;-86
2022/01/24 06:26:16;;;;;;;0.00;0.00;;;;;;;;;;4809907;29;20054;-85
2022/01/24 06:28:42;;;;;;;0.28;0.28;;;;;;;;;;4810174;29;20110;-85
2022/01/24 06:31:08;;;;;;;0.00;0.00;;;;;;;;;;4809744;29;20051;-85
2022/01/24 06:33:34;;;;;;;0.10;0.10;;;;;;;;;;4794785;29;20042;-86
2022/01/24 06:36:00;;;;;;;0.10;0.10;;;;;;;;;;4794823;29;20456;-87
2022/01/24 06:38:26;;;;;;;0.10;0.10;;;;;;;;;;4809348;29;20137;-86
2022/01/24 06:40:52;;;;;;;0.10;0.10;;;;;;;;;;4794901;29;20050;-87
2022/01/24 06:43:18;;;;;;;0.10;0.10;;;;;;;;;;4809550;29;20106;-86
2022/01/24 06:45:44;;;;;;;0.10;0.10;;;;;;;;;;4809808;29;20080;-86
2022/01/24 06:48:10;;;;;;;0.10;0.10;;;;;;;;;;4809557;29;20409;-86
2022/01/24 06:50:36;;;;;;;0.10;0.10;;;;;;;;;;4794423;29;20455;-87
2022/01/24 06:53:02;;;;;;;0.10;0.10;;;;;;;;;;4794450;29;20104;-89
2022/01/24 06:55:28;;;;;;;0.10;0.10;;;;;;;;;;4794369;29;20053;-88
2022/01/24 06:57:54;;;;;;;0.10;0.10;;;;;;;;;;4795130;29;20108;-89
2022/01/24 07:00:25;;;;;;;0.10;0.10;;;;;;;;;;4794824;29;20046;-90
2022/01/24 07:02:52;;;;;;;0.10;0.10;;;;;;;;;;4795551;29;20103;-90
2022/01/24 07:05:18;;;;;;;0.00;0.00;;;;;;;;;;4794654;29;20051;-90
2022/01/24 07:07:44;;;;;;;0.10;0.10;;;;;;;;;;4794146;29;20077;-88
2022/01/24 07:10:10;;;;;;;0.52;0.30;;;;;;;;;;4794376;29;20050;-88
2022/01/24 07:12:36;;;;;;;0.10;0.10;;;;;;;;;;4793992;29;20046;-89
2022/01/24 07:15:07;;;;;;;0.00;0.00;;;;;;;;;;4794095;29;20053;-85
2022/01/24 07:17:58;;;;;;;0.10;0.10;;;;;;;;;;4808489;29;20057;-92
2022/01/24 07:20:20;;;;;;;0.10;0.10;;;;;;;;;;4796667;29;20138;-85
2022/01/24 07:22:46;;;;;;;0.10;0.10;;;;;;;;;;4794248;29;20497;-84
2022/01/24 07:25:12;;;;;;;0.10;0.10;;;;;;;;;;4808970;29;20046;-85
2022/01/24 07:27:38;;;;;;;0.10;0.10;;;;;;;;;;4808974;29;20487;-85
2022/01/24 07:30:04;;;;;;;0.10;0.10;;;;;;;;;;4793838;29;20046;-85
2022/01/24 07:32:30;;;;;;;0.00;0.00;;;;;;;;;;4793784;29;20452;-86
2022/01/24 07:34:57;;;;;;;0.08;0.08;;;;;;;;;;4793819;29;20042;-86
2022/01/24 07:37:24;;;;;;;0.10;0.10;;;;;;;;;;4793725;29;20348;-86
2022/01/24 07:39:51;;;;;;;0.10;0.10;;;;;;;;;;4793981;29;20066;-86
2022/01/24 07:42:27;;;;;;;0.10;0.10;;;;;;;;;;4793786;29;20047;-85
2022/01/24 07:44:53;;;;;;;0.00;0.00;;;;;;;;;;4794887;29;20050;-85
2022/01/24 07:47:19;;;;;;;0.20;0.20;;;;;;;;;;4793652;29;20110;-85
2022/01/24 07:49:45;;;;;;;0.10;0.10;;;;;;;;;;4808548;29;20046;-85
2022/01/24 07:52:11;;;;;;;0.17;0.10;;;;;;;;;;4793492;29;20169;-86
2022/01/24 07:54:37;;;;;;;0.10;0.10;;;;;;;;;;4793533;29;20113;-85
2022/01/24 07:57:03;;;;;;;0.00;0.00;;;;;;;;;;4793633;29;20049;-86
2022/01/24 07:59:29;;;;;;;0.10;0.10;;;;;;;;;;4808236;29;20488;-85
2022/01/24 08:01:55;;;;;;;0.10;0.10;;;;;;;;;;4808493;29;20045;-85
2022/01/24 08:04:21;;;;;;;0.10;0.10;;;;;;;;;;4793264;29;20046;-86
2022/01/24 08:06:49;;;;;;;0.10;0.10;;;;;;;;;;4793389;29;20047;-85
2022/01/24 08:09:15;;;;;;;0.10;0.10;;;;;;;;;;4793116;29;20046;-86
2022/01/24 08:11:41;;;;;;;0.10;0.10;;;;;;;;;;4808299;29;20042;-86
2022/01/24 08:14:08;;;;;;;0.10;0.10;;;;;;;;;;4793078;29;20470;-85
2022/01/24 08:16:35;;;;;;;0.10;0.10;;;;;;;;;;4793378;29;20532;-86
2022/01/24 08:19:01;;;;;;;0.10;0.10;;;;;;;;;;4793153;29;20062;-85
2022/01/24 08:21:27;;;;;;;0.10;0.10;;;;;;;;;;4793251;29;20131;-86
2022/01/24 08:23:53;;;;;;;0.03;0.03;;;;;;;;;;4793137;29;20488;-85
2022/01/24 08:26:19;;;;;;;0.10;0.10;;;;;;;;;;4808031;29;20050;-85
2022/01/24 08:28:45;;;;;;;0.10;0.10;;;;;;;;;;4792809;29;20076;-86
2022/01/24 08:31:11;;;;;;;0.10;0.10;;;;;;;;;;4792924;29;20507;-86
2022/01/24 08:33:37;;;;;;;0.10;0.10;;;;;;;;;;4792658;29;20503;-85
2022/01/24 08:36:03;;;;;;;0.10;0.10;;;;;;;;;;4793050;29;20116;-86
2022/01/24 08:38:33;;;;;;;0.10;0.10;;;;;;;;;;4807533;29;20141;-86
2022/01/24 08:41:05;;;;;;;0.10;0.10;;;;;;;;;;4793322;29;20145;-86
2022/01/24 08:46:15;;;;;;;0.00;0.00;;;;;;;;;;4807363;29;20057;-85
2022/01/24 08:48:46;;;;;;;0.10;0.10;;;;;;;;;;4807505;29;20047;-85
2022/01/24 08:51:12;;;;;;;0.10;0.10;;;;;;;;;;4807311;29;20057;-86
2022/01/24 08:53:38;;;;;;;0.10;0.10;;;;;;;;;;4792412;29;20142;-85
2022/01/24 08:56:04;;;;;;;0.10;0.10;;;;;;;;;;4792370;29;20590;-86
2022/01/24 08:58:30;;;;;;;0.00;0.00;;;;;;;;;;4807361;29;20050;-86
2022/01/24 09:00:56;;;;;;;0.20;0.20;;;;;;;;;;4792532;29;20073;-86
2022/01/24 09:03:23;;;;;;;0.05;0.05;;;;;;;;;;4807262;29;20477;-85
2022/01/24 09:05:52;;;;;;;0.10;0.10;;;;;;;;;;4807361;29;20073;-85
2022/01/24 09:08:18;;;;;;;0.10;0.10;;;;;;;;;;4807298;29;20047;-85
2022/01/24 09:10:46;;;;;;;0.10;0.10;;;;;;;;;;4792124;29;20081;-85
2022/01/24 09:13:12;;;;;;;0.10;0.10;;;;;;;;;;4791958;29;20068;-84
2022/01/24 09:15:38;;;;;;;0.22;0.22;;;;;;;;;;4807008;29;20042;-85
2022/01/24 09:18:04;;;;;;;0.10;0.10;;;;;;;;;;4807311;29;20104;-85
2022/01/24 09:20:30;;;;;;;0.10;0.10;;;;;;;;;;4792082;29;20077;-84
2022/01/24 09:22:56;;;;;;;0.20;0.20;;;;;;;;;;4791980;29;20452;-84
2022/01/24 09:25:22;;;;;;;0.00;0.00;;;;;;;;;;4792022;29;20054;-84
2022/01/24 09:27:48;;;;;;;0.13;0.13;;;;;;;;;;4792252;29;20133;-85
2022/01/24 09:30:16;;;;;;;0.00;0.00;;;;;;;;;;4791905;29;20133;-85
2022/01/24 09:32:42;;;;;;;0.10;0.10;;;;;;;;;;4806777;29;20119;-84
2022/01/24 09:35:09;;;;;;;0.10;0.10;;;;;;;;;;4807010;29;20046;-84
2022/01/24 09:37:35;;;;;;;0.10;0.10;;;;;;;;;;4807029;29;20386;-85
2022/01/24 09:40:01;;;;;;;0.10;0.10;;;;;;;;;;4805932;29;20463;-85
2022/01/24 09:42:27;;;;;;;0.10;0.10;;;;;;;;;;4791674;29;20082;-85
2022/01/24 09:45:05;;;;;;;0.22;0.22;;;;;;;;;;5152092;27;1186958;-84
2022/01/24 09:47:31;;;;;;;0.10;0.10;;;;;;;;;;5118604;27;20280;-84
2022/01/24 09:49:57;;;;;;;0.10;0.10;;;;;;;;;;5135999;27;20044;-85
2022/01/24 09:52:23;;;;;;;0.10;0.10;;;;;;;;;;5146494;27;20039;-85
2022/01/24 09:54:49;;;;;;;0.10;0.10;;;;;;;;;;5115393;27;20038;-84
2022/01/24 09:57:15;;;;;;;0.00;0.00;;;;;;;;;;5114999;27;20123;-84
2022/01/24 09:59:41;;;;;;;0.10;0.10;;;;;;;;;;5115018;27;20034;-85
2022/01/24 10:02:07;;;;;;;0.10;0.10;;;;;;;;;;5114828;27;20125;-84
2022/01/24 10:04:33;;;;;;;0.10;0.10;;;;;;;;;;5115003;27;20042;-85
2022/01/24 10:07:00;;;;;;;0.17;0.17;;;;;;;;;;5131852;27;20067;-85
2022/01/24 10:09:27;;;;;;;0.10;0.10;;;;;;;;;;5097993;27;20035;-85
2022/01/24 10:12:19;;;;;;;0.00;0.00;;;;;;;;;;5114833;27;20083;-84
2022/01/24 10:17:31;;;;;;;0.00;0.00;;;;;;;;;;5131714;27;20485;-84
2022/01/24 10:19:57;;;;;;;0.10;0.10;;;;;;;;;;5132068;27;20054;-84
2022/01/24 10:22:23;;;;;;;0.10;0.10;;;;;;;;;;5114772;27;20065;-85
2022/01/24 10:24:51;;;;;;;0.20;0.20;;;;;;;;;;5097578;27;20074;-84
2022/01/24 10:27:28;;;;;;;0.10;0.10;;;;;;;;;;5114718;27;20424;-85
2022/01/24 10:30:00;;;;;;;0.10;0.10;;;;;;;;;;5114699;27;20049;-84
2022/01/24 10:32:29;;;;;;;0.10;0.10;;;;;;;;;;5131295;27;20398;-84
2022/01/24 10:34:56;;;;;;;0.15;0.15;;;;;;;;;;5114588;27;20122;-85
2022/01/24 10:37:22;;;;;;;0.10;0.10;;;;;;;;;;5114476;27;20518;-85
2022/01/24 10:40:08;;;;;;;0.10;0.10;;;;;;;;;;5114314;27;20362;-85
2022/01/24 10:42:52;;;;;;;0.10;0.10;;;;;;;;;;5117098;27;20043;-85
2022/01/24 10:45:20;;;;;;;0.10;0.10;;;;;;;;;;5116298;27;20044;-85
2022/01/24 10:47:49;;;;;;;0.25;0.25;;;;;;;;;;5114542;27;20130;-85
2022/01/24 10:50:24;;;;;;;0.10;0.10;;;;;;;;;;5114242;27;20043;-85
2022/01/24 10:52:50;;;;;;;0.10;0.10;;;;;;;;;;5131127;27;20508;-84
2022/01/24 10:55:16;;;;;;;0.30;0.30;;;;;;;;;;5124227;27;20104;-85
2022/01/24 10:57:43;;;;;;;0.10;0.10;;;;;;;;;;5117427;27;20118;-84
2022/01/24 11:00:13;;;;;;;0.10;0.10;;;;;;;;;;5100430;27;20485;-84
2022/01/24 11:02:40;;;;;;;0.10;0.10;;;;;;;;;;5100439;27;20042;-85
2022/01/24 11:05:17;;;;;;;0.05;0.05;;;;;;;;;;5100408;27;20067;-85
2022/01/24 11:07:47;;;;;;;0.10;0.10;;;;;;;;;;5083331;27;20043;-84
2022/01/24 11:10:13;;;;;;;0.10;0.10;;;;;;;;;;5100301;27;20035;-84
2022/01/24 11:12:39;;;;;;;0.10;0.10;;;;;;;;;;5119900;27;20069;-85
2022/01/24 11:15:05;;;;;;;0.03;0.03;;;;;;;;;;5101849;27;20225;-84
2022/01/24 11:17:31;;;;;;;0.10;0.10;;;;;;;;;;5103107;27;20053;-85
2022/01/24 11:20:01;;;;;;;0.10;0.10;;;;;;;;;;5102882;27;20113;-85
2022/01/24 11:22:29;;;;;;;0.10;0.10;;;;;;;;;;5086251;27;20035;-85
2022/01/24 11:24:59;;;;;;;0.00;0.00;;;;;;;;;;5102859;27;20054;-84
2022/01/24 11:27:25;;;;;;;0.10;0.10;;;;;;;;;;5085720;27;20084;-84
2022/01/24 11:29:52;;;;;;;0.10;0.10;;;;;;;;;;5101794;27;20138;-85
2022/01/24 11:32:47;;;;;;;0.10;0.10;;;;;;;;;;5116651;27;20111;-85
2022/01/24 11:35:13;;;;;;;0.10;0.10;;;;;;;;;;5116918;27;20042;-85
2022/01/24 11:37:40;;;;;;;0.10;0.10;;;;;;;;;;5099599;27;20501;-85
2022/01/24 11:40:13;;;;;;;0.10;0.10;;;;;;;;;;5099993;27;20107;-85
2022/01/24 11:42:41;;;;;;;0.00;0.00;;;;;;;;;;5099420;27;20047;-85
2022/01/24 11:45:12;;;;;;;0.10;0.10;;;;;;;;;;5082527;27;20058;-85
2022/01/24 11:47:39;;;;;;;0.10;0.10;;;;;;;;;;5100178;27;20059;-85
2022/01/24 11:50:25;;;;;;;0.10;0.10;;;;;;;;;;5099254;27;20050;-84
2022/01/24 11:52:51;;;;;;;0.10;0.10;;;;;;;;;;5082196;27;20039;-85
2022/01/24 11:55:31;;;;;;;0.10;0.10;;;;;;;;;;5099165;27;20171;-85
2022/01/24 11:58:02;;;;;;;0.10;0.10;;;;;;;;;;5084243;27;20035;-87
2022/01/24 12:00:33;;;;;;;0.10;0.10;;;;;;;;;;5099158;27;20079;-85
2022/01/24 12:03:01;;;;;;;0.10;0.10;;;;;;;;;;5082926;27;20039;-85
2022/01/24 12:05:46;;;;;;;0.10;0.10;;;;;;;;;;5099044;27;20039;-85
2022/01/24 12:08:12;;;;;;;0.10;0.10;;;;;;;;;;5097857;27;20500;-85
2022/01/24 12:10:43;;;;;;;0.10;0.10;;;;;;;;;;5115872;27;20335;-85
2022/01/24 12:13:27;;;;;;;0.10;0.10;;;;;;;;;;5099443;27;20051;-86
2022/01/24 12:15:55;;;;;;;0.10;0.10;;;;;;;;;;5083404;27;20425;-85
2022/01/24 12:18:22;;;;;;;0.10;0.10;;;;;;;;;;5115745;27;20043;-86
2022/01/24 12:20:49;;;;;;;0.10;0.10;;;;;;;;;;5115852;27;20043;-85
2022/01/24 12:23:25;;;;;;;0.10;0.10;;;;;;;;;;5098412;27;20089;-85
2022/01/24 12:25:54;;;;;;;0.10;0.10;;;;;;;;;;5115433;27;20090;-85
2022/01/24 12:28:24;;;;;;;0.10;0.10;;;;;;;;;;5115342;27;20482;-85
2022/01/24 12:31:07;;;;;;;0.10;0.10;;;;;;;;;;5098771;27;20042;-85
2022/01/24 12:33:34;;;;;;;0.10;0.10;;;;;;;;;;5115768;27;20423;-84
2022/01/24 12:36:01;;;;;;;0.10;0.10;;;;;;;;;;5081765;27;20046;-85
2022/01/24 12:38:34;;;;;;;0.10;0.10;;;;;;;;;;5098435;27;20451;-84
2022/01/24 12:41:21;;;;;;;0.10;0.10;;;;;;;;;;5098569;27;20411;-85
2022/01/24 12:46:28;;;;;;;0.20;0.20;;;;;;;;;;5115000;27;20050;-84
2022/01/24 12:48:56;;;;;;;0.10;0.10;;;;;;;;;;5098493;27;20035;-84
2022/01/24 12:51:22;;;;;;;0.10;0.10;;;;;;;;;;5097969;27;20039;-85
2022/01/24 12:53:48;;;;;;;0.10;0.10;;;;;;;;;;5081238;27;20035;-84
2022/01/24 12:56:16;;;;;;;0.20;0.20;;;;;;;;;;5098561;27;20394;-85
2022/01/24 12:58:42;;;;;;;0.10;0.10;;;;;;;;;;5115444;27;20466;-85
2022/01/24 13:01:21;;;;;;;0.10;0.10;;;;;;;;;;5133338;27;20046;-84
2022/01/24 13:03:55;;;;;;;0.10;0.10;;;;;;;;;;5114848;27;20035;-85
2022/01/24 13:06:21;;;;;;;0.20;0.20;;;;;;;;;;5098313;27;20035;-84
2022/01/24 13:08:53;;;;;;;0.10;0.10;;;;;;;;;;5114974;27;20089;-84
2022/01/24 13:11:19;;;;;;;3.63;0.60;;;;;;;;;;5098007;28;20125;-85
2022/01/24 13:13:59;;;;;;;0.22;0.22;;;;;;;;;;5097955;27;20043;-85
2022/01/24 13:22:19;;;;;;;0.43;0.43;;;;;;;;;;5132968;27;20042;-85
2022/01/24 13:25:03;;;;;;;0.10;0.10;;;;;;;;;;5097575;27;20043;-84
2022/01/24 13:27:35;;;;;;;0.10;0.10;;;;;;;;;;5097658;27;20199;-85
2022/01/24 13:30:03;;;;;;;0.20;0.20;;;;;;;;;;5114731;27;20087;-84
2022/01/24 13:32:46;;;;;;;0.28;0.28;;;;;;;;;;5097706;28;20047;-85
2022/01/24 13:35:31;;;;;;;0.10;0.10;;;;;;;;;;5080896;27;20058;-84
2022/01/24 13:38:02;;;;;;;0.10;0.10;;;;;;;;;;5114455;28;20043;-85
2022/01/24 13:40:32;;;;;;;0.10;0.10;;;;;;;;;;5114484;28;20050;-84
2022/01/24 13:42:58;;;;;;;0.20;0.20;;;;;;;;;;5114419;28;20116;-85
2022/01/24 13:45:24;;;;;;;0.30;0.30;;;;;;;;;;5114074;28;20510;-85
2022/01/24 13:47:59;;;;;;;0.10;0.10;;;;;;;;;;5114392;28;20051;-84
2022/01/24 13:50:26;;;;;;;0.10;0.10;;;;;;;;;;5080849;28;20050;-85
2022/01/24 13:52:52;;;;;;;0.00;0.00;;;;;;;;;;5097494;28;20484;-85
2022/01/24 13:55:18;;;;;;;0.10;0.10;;;;;;;;;;5080616;28;20031;-84
2022/01/24 13:57:45;;;;;;;0.10;0.10;;;;;;;;;;5114252;28;20035;-84
2022/01/24 14:00:11;;;;;;;0.20;0.20;;;;;;;;;;5097315;28;20502;-85
2022/01/24 14:02:37;;;;;;;0.10;0.10;;;;;;;;;;5097218;28;20199;-84
2022/01/24 14:05:04;;;;;;;0.10;0.10;;;;;;;;;;5114090;28;20047;-85
2022/01/24 14:07:31;;;;;;;0.25;0.25;;;;;;;;;;5113726;28;20261;-85
2022/01/24 14:09:57;;;;;;;0.10;0.10;;;;;;;;;;5097160;28;20459;-85
2022/01/24 14:15:20;;;;;;;0.10;0.10;;;;;;;;;;5114039;28;20053;-84
2022/01/24 14:20:41;;;;;;;0.17;0.17;;;;;;;;;;5099592;28;20039;-85
2022/01/24 14:23:19;;;;;;;0.10;0.10;;;;;;;;;;5097232;28;20058;-84
2022/01/24 14:25:45;;;;;;;0.10;0.10;;;;;;;;;;5080221;28;20481;-84
2022/01/24 14:28:11;;;;;;;0.10;0.10;;;;;;;;;;5114299;28;20395;-84
2022/01/24 14:30:40;;;;;;;0.10;0.10;;;;;;;;;;5082069;27;20118;-83
2022/01/24 14:33:12;;;;;;;0.10;0.10;;;;;;;;;;5101185;27;20092;-83
2022/01/24 14:35:58;;;;;;;0.13;0.13;;;;;;;;;;5101053;27;20521;-82
2022/01/24 14:38:28;;;;;;;0.10;0.10;;;;;;;;;;5100371;27;20078;-82
2022/01/24 14:40:56;;;;;;;0.10;0.10;;;;;;;;;;5117754;27;20486;-83
2022/01/24 14:46:08;;;;;;;0.25;0.25;;;;;;;;;;5103198;27;20510;-83
2022/01/24 14:48:53;;;;;;;0.15;0.15;;;;;;;;;;5117402;27;20046;-83
2022/01/24 14:51:24;;;;;;;0.10;0.10;;;;;;;;;;5100505;27;20099;-83
2022/01/24 14:53:51;;;;;;;0.10;0.10;;;;;;;;;;5083454;27;20071;-82
2022/01/24 14:56:17;;;;;;;0.10;0.10;;;;;;;;;;5099757;27;20496;-83
2022/01/24 14:58:43;;;;;;;0.10;0.10;;;;;;;;;;5117361;27;20042;-83
2022/01/24 15:01:09;;;;;;;0.10;0.10;;;;;;;;;;5100187;27;20046;-83
2022/01/24 15:03:37;;;;;;;2.72;0.30;;;;;;;;;;5099956;27;20071;-83
2022/01/24 15:06:03;;;;;;;0.30;0.30;;;;;;;;;;5116999;27;20126;-83
2022/01/24 15:08:29;;;;;;;0.35;0.17;;;;;;;;;;5083268;27;20050;-83
2022/01/24 15:10:55;;;;;;;0.95;0.45;;;;;;;;;;5082948;27;20082;-83
2022/01/24 15:13:24;;;;;;;0.10;0.10;;;;;;;;;;5116722;27;20039;-82
2022/01/24 15:16:12;;;;;;;0.10;0.10;;;;;;;;;;5099911;27;20039;-83
2022/01/24 15:24:26;;;;;;;0.10;0.10;;;;;;;;;;5101730;27;20059;-83
2022/01/24 15:26:52;;;;;;;0.10;0.10;;;;;;;;;;5101763;27;20115;-84
2022/01/24 15:29:18;;;;;;;0.10;0.10;;;;;;;;;;5099253;27;20401;-83
2022/01/24 15:31:45;;;;;;;0.85;0.85;;;;;;;;;;5099011;27;20118;-83
2022/01/24 15:34:11;;;;;;;0.10;0.10;;;;;;;;;;5116176;27;20100;-83
2022/01/24 15:36:38;;;;;;;0.57;0.10;;;;;;;;;;5116007;27;20118;-83
2022/01/24 15:39:06;;;;;;;0.20;0.20;;;;;;;;;;5099099;27;20043;-82
2022/01/24 15:41:32;;;;;;;0.10;0.10;;;;;;;;;;5116014;27;20047;-82
2022/01/24 15:44:20;;;;;;;0.10;0.10;;;;;;;;;;5112333;28;20075;-83
2022/01/24 15:46:56;;;;;;;0.10;0.10;;;;;;;;;;5095696;28;20040;-83
2022/01/24 15:49:22;;;;;;;0.10;0.10;;;;;;;;;;5079861;28;20050;-82
2022/01/24 15:51:48;;;;;;;0.10;0.10;;;;;;;;;;5112327;28;20348;-84
2022/01/24 15:54:17;;;;;;;0.10;0.10;;;;;;;;;;5095575;28;20130;-83
2022/01/24 15:59:09;;;;;;;0.20;0.20;;;;;;;;;;5112246;28;20049;-83
2022/01/24 16:01:36;;;;;;;0.10;0.10;;;;;;;;;;5112206;28;20079;-83
2022/01/24 16:04:02;;;;;;;0.10;0.10;;;;;;;;;;5112070;28;20075;-84
2022/01/24 16:06:29;;;;;;;0.10;0.10;;;;;;;;;;5095260;28;20108;-83
2022/01/24 16:08:54;;;;;;;0.10;0.10;;;;;;;;;;5095296;28;20044;-84
2022/01/24 16:11:20;;;;;;;0.10;0.10;;;;;;;;;;5111918;28;20430;-83
2022/01/24 16:13:47;;;;;;;0.10;0.10;;;;;;;;;;5113482;28;20042;-83
2022/01/24 16:16:15;;;;;;;0.10;0.10;;;;;;;;;;5096888;28;20051;-83
2022/01/24 16:18:41;;;;;;;0.10;0.10;;;;;;;;;;5096588;28;20443;-83
2022/01/24 16:21:46;;;;;;;0.10;0.10;;;;;;;;;;5095095;28;20081;-84
2022/01/24 16:26:52;;;;;;;0.13;0.13;;;;;;;;;;5088970;28;20044;-85
2022/01/24 16:29:18;;;;;;;0.00;0.00;;;;;;;;;;5094809;28;20360;-84
2022/01/24 16:31:44;;;;;;;0.10;0.10;;;;;;;;;;5111962;28;20124;-83
2022/01/24 16:34:10;;;;;;;0.10;0.10;;;;;;;;;;5111722;28;20048;-82
2022/01/24 16:36:36;;;;;;;0.10;0.10;;;;;;;;;;5094780;28;20040;-83
2022/01/24 16:39:05;;;;;;;0.10;0.10;;;;;;;;;;5077890;28;20490;-85
2022/01/24 16:44:35;;;;;;;0.10;0.10;;;;;;;;;;5122074;27;20138;-83
2022/01/24 16:47:12;;;;;;;0.10;0.10;;;;;;;;;;5097841;27;20042;-83
2022/01/24 16:49:39;;;;;;;0.10;0.10;;;;;;;;;;5114766;27;20432;-83
2022/01/24 16:52:05;;;;;;;0.10;0.10;;;;;;;;;;5114341;27;20122;-84
2022/01/24 16:54:32;;;;;;;0.10;0.10;;;;;;;;;;5099270;27;20042;-83
2022/01/24 16:56:58;;;;;;;0.10;0.10;;;;;;;;;;5114516;27;20053;-83
2022/01/24 16:59:24;;;;;;;0.10;0.10;;;;;;;;;;5097693;27;20387;-83
2022/01/24 17:01:50;;;;;;;0.20;0.20;;;;;;;;;;5097367;27;20043;-83